sensor_id;sensor_type;location;lat;lon;timestamp;P1;durP1;ratioP1;P2;durP2;ratioP2
66256;SDS011;53049;43.446;3.698;2023-05-20T00:01:00;10.23;;;5.60;;
66256;SDS011;53049;43.446;3.698;2023-05-20T00:03:26;7.90;;;5.47;;
66256;SDS011;53049;43.446;3.698;2023-05-20T00:05:53;7.95;;;6.03;;
66256;SDS011;53049;43.446;3.698;2023-05-20T00:08:19;7.75;;;5.15;;
66256;SDS011;53049;43.446;3.698;2023-05-20T00:10:45;7.93;;;5.50;;
66256;SDS011;53049;43.446;3.698;2023-05-20T00:13:10;7.35;;;5.47;;
66256;SDS011;53049;43.446;3.698;2023-05-20T00:15:36;7.75;;;5.40;;
66256;SDS011;53049;43.446;3.698;2023-05-20T00:18:02;8.30;;;6.00;;
66256;SDS011;53049;43.446;3.698;2023-05-20T00:20:28;9.27;;;6.07;;
66256;SDS011;53049;43.446;3.698;2023-05-20T00:22:53;8.27;;;5.47;;
66256;SDS011;53049;43.446;3.698;2023-05-20T00:25:19;8.95;;;6.20;;
66256;SDS011;53049;43.446;3.698;2023-05-20T00:27:45;6.97;;;5.22;;
66256;SDS011;53049;43.446;3.698;2023-05-20T00:30:11;9.93;;;6.40;;
66256;SDS011;53049;43.446;3.698;2023-05-20T00:32:37;7.60;;;5.40;;
66256;SDS011;53049;43.446;3.698;2023-05-20T00:35:03;10.15;;;6.38;;
66256;SDS011;53049;43.446;3.698;2023-05-20T00:37:29;9.15;;;5.85;;
66256;SDS011;53049;43.446;3.698;2023-05-20T00:39:55;10.57;;;5.63;;
66256;SDS011;53049;43.446;3.698;2023-05-20T00:42:25;7.88;;;5.68;;
66256;SDS011;53049;43.446;3.698;2023-05-20T00:44:52;8.90;;;5.97;;
66256;SDS011;53049;43.446;3.698;2023-05-20T00:47:19;9.02;;;5.95;;
66256;SDS011;53049;43.446;3.698;2023-05-20T00:49:47;8.70;;;5.65;;
66256;SDS011;53049;43.446;3.698;2023-05-20T00:52:15;8.57;;;5.85;;
66256;SDS011;53049;43.446;3.698;2023-05-20T00:54:42;9.35;;;6.78;;
66256;SDS011;53049;43.446;3.698;2023-05-20T00:57:10;9.73;;;6.57;;
66256;SDS011;53049;43.446;3.698;2023-05-20T00:59:36;9.25;;;6.82;;
66256;SDS011;53049;43.446;3.698;2023-05-20T01:02:03;10.23;;;7.30;;
66256;SDS011;53049;43.446;3.698;2023-05-20T01:04:29;10.55;;;6.40;;
66256;SDS011;53049;43.446;3.698;2023-05-20T01:06:55;8.25;;;6.10;;
66256;SDS011;53049;43.446;3.698;2023-05-20T01:09:22;8.68;;;6.07;;
66256;SDS011;53049;43.446;3.698;2023-05-20T01:12:09;13.15;;;6.32;;
66256;SDS011;53049;43.446;3.698;2023-05-20T01:14:52;9.32;;;5.50;;
66256;SDS011;53049;43.446;3.698;2023-05-20T01:17:30;8.90;;;5.85;;
66256;SDS011;53049;43.446;3.698;2023-05-20T01:19:57;8.13;;;5.50;;
66256;SDS011;53049;43.446;3.698;2023-05-20T01:22:24;8.82;;;5.57;;
66256;SDS011;53049;43.446;3.698;2023-05-20T01:24:50;7.93;;;5.45;;
66256;SDS011;53049;43.446;3.698;2023-05-20T01:27:19;9.00;;;6.03;;
66256;SDS011;53049;43.446;3.698;2023-05-20T01:29:46;9.98;;;5.70;;
66256;SDS011;53049;43.446;3.698;2023-05-20T01:32:20;9.18;;;6.18;;
66256;SDS011;53049;43.446;3.698;2023-05-20T01:34:48;8.05;;;5.85;;
66256;SDS011;53049;43.446;3.698;2023-05-20T01:37:15;8.13;;;5.72;;
66256;SDS011;53049;43.446;3.698;2023-05-20T01:39:43;7.93;;;6.13;;
66256;SDS011;53049;43.446;3.698;2023-05-20T01:42:10;10.55;;;6.45;;
66256;SDS011;53049;43.446;3.698;2023-05-20T01:44:38;10.18;;;6.45;;
66256;SDS011;53049;43.446;3.698;2023-05-20T01:47:03;8.43;;;6.10;;
66256;SDS011;53049;43.446;3.698;2023-05-20T01:49:29;8.45;;;6.35;;
66256;SDS011;53049;43.446;3.698;2023-05-20T01:51:55;9.50;;;5.70;;
66256;SDS011;53049;43.446;3.698;2023-05-20T01:54:21;7.93;;;6.30;;
66256;SDS011;53049;43.446;3.698;2023-05-20T01:56:47;8.38;;;6.05;;
66256;SDS011;53049;43.446;3.698;2023-05-20T01:59:13;12.45;;;6.40;;
66256;SDS011;53049;43.446;3.698;2023-05-20T02:01:39;9.23;;;6.10;;
66256;SDS011;53049;43.446;3.698;2023-05-20T02:04:04;9.93;;;6.47;;
66256;SDS011;53049;43.446;3.698;2023-05-20T02:06:30;9.73;;;6.30;;
66256;SDS011;53049;43.446;3.698;2023-05-20T02:08:56;7.85;;;5.32;;
66256;SDS011;53049;43.446;3.698;2023-05-20T02:11:21;7.78;;;5.00;;
66256;SDS011;53049;43.446;3.698;2023-05-20T02:13:48;7.72;;;5.20;;
66256;SDS011;53049;43.446;3.698;2023-05-20T02:16:14;7.18;;;5.25;;
66256;SDS011;53049;43.446;3.698;2023-05-20T02:18:39;9.77;;;5.50;;
66256;SDS011;53049;43.446;3.698;2023-05-20T02:21:06;8.38;;;5.15;;
66256;SDS011;53049;43.446;3.698;2023-05-20T02:23:32;7.50;;;5.15;;
66256;SDS011;53049;43.446;3.698;2023-05-20T02:25:58;8.55;;;4.70;;
66256;SDS011;53049;43.446;3.698;2023-05-20T02:28:24;8.52;;;4.32;;
66256;SDS011;53049;43.446;3.698;2023-05-20T02:30:50;6.82;;;4.22;;
66256;SDS011;53049;43.446;3.698;2023-05-20T02:33:16;7.35;;;4.22;;
66256;SDS011;53049;43.446;3.698;2023-05-20T02:35:42;6.45;;;4.28;;
66256;SDS011;53049;43.446;3.698;2023-05-20T02:38:07;7.60;;;4.38;;
66256;SDS011;53049;43.446;3.698;2023-05-20T02:40:34;7.85;;;4.45;;
66256;SDS011;53049;43.446;3.698;2023-05-20T02:42:59;6.50;;;4.22;;
66256;SDS011;53049;43.446;3.698;2023-05-20T02:45:25;11.60;;;4.25;;
66256;SDS011;53049;43.446;3.698;2023-05-20T02:47:51;7.53;;;4.40;;
66256;SDS011;53049;43.446;3.698;2023-05-20T02:50:17;7.60;;;4.28;;
66256;SDS011;53049;43.446;3.698;2023-05-20T02:52:42;9.98;;;4.82;;
66256;SDS011;53049;43.446;3.698;2023-05-20T02:55:09;8.30;;;4.13;;
66256;SDS011;53049;43.446;3.698;2023-05-20T02:57:35;7.28;;;4.65;;
66256;SDS011;53049;43.446;3.698;2023-05-20T03:00:04;6.15;;;4.05;;
66256;SDS011;53049;43.446;3.698;2023-05-20T03:02:32;7.80;;;4.28;;
66256;SDS011;53049;43.446;3.698;2023-05-20T03:04:58;7.50;;;4.75;;
66256;SDS011;53049;43.446;3.698;2023-05-20T03:07:24;6.78;;;4.55;;
66256;SDS011;53049;43.446;3.698;2023-05-20T03:09:50;7.47;;;4.47;;
66256;SDS011;53049;43.446;3.698;2023-05-20T03:12:16;6.90;;;4.10;;
66256;SDS011;53049;43.446;3.698;2023-05-20T03:14:41;10.02;;;5.57;;
66256;SDS011;53049;43.446;3.698;2023-05-20T03:17:07;10.00;;;4.22;;
66256;SDS011;53049;43.446;3.698;2023-05-20T03:19:34;8.18;;;4.28;;
66256;SDS011;53049;43.446;3.698;2023-05-20T03:22:00;8.98;;;4.70;;
66256;SDS011;53049;43.446;3.698;2023-05-20T03:24:27;5.93;;;4.28;;
66256;SDS011;53049;43.446;3.698;2023-05-20T03:26:53;7.30;;;4.50;;
66256;SDS011;53049;43.446;3.698;2023-05-20T03:29:20;6.00;;;3.70;;
66256;SDS011;53049;43.446;3.698;2023-05-20T03:31:47;7.25;;;4.32;;
66256;SDS011;53049;43.446;3.698;2023-05-20T03:34:12;6.75;;;4.07;;
66256;SDS011;53049;43.446;3.698;2023-05-20T03:36:38;7.00;;;4.40;;
66256;SDS011;53049;43.446;3.698;2023-05-20T03:39:03;7.93;;;4.18;;
66256;SDS011;53049;43.446;3.698;2023-05-20T03:41:29;9.90;;;4.40;;
66256;SDS011;53049;43.446;3.698;2023-05-20T03:43:55;6.78;;;4.10;;
66256;SDS011;53049;43.446;3.698;2023-05-20T03:46:21;8.70;;;4.63;;
66256;SDS011;53049;43.446;3.698;2023-05-20T03:48:47;6.45;;;4.10;;
66256;SDS011;53049;43.446;3.698;2023-05-20T03:51:12;8.45;;;4.13;;
66256;SDS011;53049;43.446;3.698;2023-05-20T03:53:38;9.07;;;3.70;;
66256;SDS011;53049;43.446;3.698;2023-05-20T03:56:03;6.72;;;3.55;;
66256;SDS011;53049;43.446;3.698;2023-05-20T03:58:29;7.18;;;3.85;;
66256;SDS011;53049;43.446;3.698;2023-05-20T04:00:55;7.15;;;4.10;;
66256;SDS011;53049;43.446;3.698;2023-05-20T04:03:21;5.68;;;3.53;;
66256;SDS011;53049;43.446;3.698;2023-05-20T04:05:47;8.40;;;4.00;;
66256;SDS011;53049;43.446;3.698;2023-05-20T04:08:13;6.88;;;3.60;;
66256;SDS011;53049;43.446;3.698;2023-05-20T04:10:42;6.68;;;3.33;;
66256;SDS011;53049;43.446;3.698;2023-05-20T04:13:08;8.98;;;4.07;;
66256;SDS011;53049;43.446;3.698;2023-05-20T04:15:35;9.48;;;4.07;;
66256;SDS011;53049;43.446;3.698;2023-05-20T04:18:02;8.68;;;3.63;;
66256;SDS011;53049;43.446;3.698;2023-05-20T04:20:29;6.38;;;3.65;;
66256;SDS011;53049;43.446;3.698;2023-05-20T04:22:55;7.53;;;3.63;;
66256;SDS011;53049;43.446;3.698;2023-05-20T04:25:21;7.40;;;3.55;;
66256;SDS011;53049;43.446;3.698;2023-05-20T04:27:46;6.82;;;3.67;;
66256;SDS011;53049;43.446;3.698;2023-05-20T04:30:14;6.78;;;3.60;;
66256;SDS011;53049;43.446;3.698;2023-05-20T04:32:42;8.02;;;3.92;;
66256;SDS011;53049;43.446;3.698;2023-05-20T04:35:08;6.57;;;3.78;;
66256;SDS011;53049;43.446;3.698;2023-05-20T04:37:36;8.98;;;3.90;;
66256;SDS011;53049;43.446;3.698;2023-05-20T04:40:02;7.25;;;4.30;;
66256;SDS011;53049;43.446;3.698;2023-05-20T04:42:28;8.32;;;4.20;;
66256;SDS011;53049;43.446;3.698;2023-05-20T04:44:54;6.90;;;3.90;;
66256;SDS011;53049;43.446;3.698;2023-05-20T04:47:20;6.07;;;3.42;;
66256;SDS011;53049;43.446;3.698;2023-05-20T04:49:45;5.30;;;3.50;;
66256;SDS011;53049;43.446;3.698;2023-05-20T04:52:11;7.45;;;4.10;;
66256;SDS011;53049;43.446;3.698;2023-05-20T04:54:37;6.75;;;3.58;;
66256;SDS011;53049;43.446;3.698;2023-05-20T04:57:04;6.78;;;3.70;;
66256;SDS011;53049;43.446;3.698;2023-05-20T04:59:30;7.80;;;3.65;;
66256;SDS011;53049;43.446;3.698;2023-05-20T05:01:55;6.20;;;3.40;;
66256;SDS011;53049;43.446;3.698;2023-05-20T05:04:21;7.60;;;3.83;;
66256;SDS011;53049;43.446;3.698;2023-05-20T05:06:47;6.13;;;3.60;;
66256;SDS011;53049;43.446;3.698;2023-05-20T05:09:13;7.05;;;3.90;;
66256;SDS011;53049;43.446;3.698;2023-05-20T05:11:39;7.97;;;3.70;;
66256;SDS011;53049;43.446;3.698;2023-05-20T05:14:05;9.43;;;4.32;;
66256;SDS011;53049;43.446;3.698;2023-05-20T05:16:30;6.15;;;3.58;;
66256;SDS011;53049;43.446;3.698;2023-05-20T05:18:56;8.57;;;3.85;;
66256;SDS011;53049;43.446;3.698;2023-05-20T05:21:22;8.45;;;3.67;;
66256;SDS011;53049;43.446;3.698;2023-05-20T05:23:47;6.93;;;3.40;;
66256;SDS011;53049;43.446;3.698;2023-05-20T05:26:13;6.28;;;3.60;;
66256;SDS011;53049;43.446;3.698;2023-05-20T05:28:42;5.35;;;3.60;;
66256;SDS011;53049;43.446;3.698;2023-05-20T05:31:08;7.60;;;3.80;;
66256;SDS011;53049;43.446;3.698;2023-05-20T05:33:34;7.57;;;3.70;;
66256;SDS011;53049;43.446;3.698;2023-05-20T05:35:59;4.60;;;3.22;;
66256;SDS011;53049;43.446;3.698;2023-05-20T05:38:26;6.13;;;3.53;;
66256;SDS011;53049;43.446;3.698;2023-05-20T05:40:52;5.70;;;3.53;;
66256;SDS011;53049;43.446;3.698;2023-05-20T05:43:17;5.53;;;3.60;;
66256;SDS011;53049;43.446;3.698;2023-05-20T05:45:43;5.45;;;3.38;;
66256;SDS011;53049;43.446;3.698;2023-05-20T05:48:09;6.28;;;3.42;;
66256;SDS011;53049;43.446;3.698;2023-05-20T05:50:35;6.22;;;3.50;;
66256;SDS011;53049;43.446;3.698;2023-05-20T05:53:00;5.47;;;3.40;;
66256;SDS011;53049;43.446;3.698;2023-05-20T05:55:26;8.25;;;3.33;;
66256;SDS011;53049;43.446;3.698;2023-05-20T05:57:52;8.70;;;4.10;;
66256;SDS011;53049;43.446;3.698;2023-05-20T06:00:18;7.03;;;3.30;;
66256;SDS011;53049;43.446;3.698;2023-05-20T06:02:45;6.78;;;3.40;;
66256;SDS011;53049;43.446;3.698;2023-05-20T06:05:11;5.43;;;3.45;;
66256;SDS011;53049;43.446;3.698;2023-05-20T06:07:37;5.63;;;3.42;;
66256;SDS011;53049;43.446;3.698;2023-05-20T06:10:03;7.22;;;3.58;;
66256;SDS011;53049;43.446;3.698;2023-05-20T06:12:30;7.10;;;3.67;;
66256;SDS011;53049;43.446;3.698;2023-05-20T06:14:55;4.90;;;3.15;;
66256;SDS011;53049;43.446;3.698;2023-05-20T06:17:21;4.97;;;3.10;;
66256;SDS011;53049;43.446;3.698;2023-05-20T06:19:46;7.30;;;3.60;;
66256;SDS011;53049;43.446;3.698;2023-05-20T06:22:12;6.10;;;3.50;;
66256;SDS011;53049;43.446;3.698;2023-05-20T06:24:38;5.95;;;3.05;;
66256;SDS011;53049;43.446;3.698;2023-05-20T06:27:04;4.97;;;2.80;;
66256;SDS011;53049;43.446;3.698;2023-05-20T06:29:30;7.78;;;3.40;;
66256;SDS011;53049;43.446;3.698;2023-05-20T06:31:56;7.55;;;3.53;;
66256;SDS011;53049;43.446;3.698;2023-05-20T06:34:21;6.40;;;3.45;;
66256;SDS011;53049;43.446;3.698;2023-05-20T06:36:47;5.78;;;3.03;;
66256;SDS011;53049;43.446;3.698;2023-05-20T06:39:13;6.30;;;3.10;;
66256;SDS011;53049;43.446;3.698;2023-05-20T06:41:39;8.45;;;3.08;;
66256;SDS011;53049;43.446;3.698;2023-05-20T06:44:05;5.72;;;3.10;;
66256;SDS011;53049;43.446;3.698;2023-05-20T06:46:31;5.75;;;3.25;;
66256;SDS011;53049;43.446;3.698;2023-05-20T06:48:57;5.38;;;2.92;;
66256;SDS011;53049;43.446;3.698;2023-05-20T06:51:24;5.10;;;3.00;;
66256;SDS011;53049;43.446;3.698;2023-05-20T06:53:51;4.85;;;3.13;;
66256;SDS011;53049;43.446;3.698;2023-05-20T06:56:16;5.78;;;3.33;;
66256;SDS011;53049;43.446;3.698;2023-05-20T06:58:42;4.95;;;2.80;;
66256;SDS011;53049;43.446;3.698;2023-05-20T07:01:09;6.45;;;3.03;;
66256;SDS011;53049;43.446;3.698;2023-05-20T07:03:35;4.40;;;2.95;;
66256;SDS011;53049;43.446;3.698;2023-05-20T07:06:00;6.35;;;3.25;;
66256;SDS011;53049;43.446;3.698;2023-05-20T07:08:26;8.25;;;3.50;;
66256;SDS011;53049;43.446;3.698;2023-05-20T07:10:54;5.25;;;2.90;;
66256;SDS011;53049;43.446;3.698;2023-05-20T07:13:20;6.45;;;3.42;;
66256;SDS011;53049;43.446;3.698;2023-05-20T07:15:48;6.65;;;3.58;;
66256;SDS011;53049;43.446;3.698;2023-05-20T07:18:14;5.03;;;3.10;;
66256;SDS011;53049;43.446;3.698;2023-05-20T07:20:40;6.85;;;3.55;;
66256;SDS011;53049;43.446;3.698;2023-05-20T07:23:05;5.97;;;3.33;;
66256;SDS011;53049;43.446;3.698;2023-05-20T07:25:31;4.15;;;3.05;;
66256;SDS011;53049;43.446;3.698;2023-05-20T07:27:57;7.03;;;3.28;;
66256;SDS011;53049;43.446;3.698;2023-05-20T07:30:24;6.45;;;3.22;;
66256;SDS011;53049;43.446;3.698;2023-05-20T07:32:51;4.63;;;2.95;;
66256;SDS011;53049;43.446;3.698;2023-05-20T07:35:16;5.38;;;3.35;;
66256;SDS011;53049;43.446;3.698;2023-05-20T07:37:42;6.07;;;3.20;;
66256;SDS011;53049;43.446;3.698;2023-05-20T07:40:08;5.72;;;3.45;;
66256;SDS011;53049;43.446;3.698;2023-05-20T07:42:34;5.15;;;3.47;;
66256;SDS011;53049;43.446;3.698;2023-05-20T07:45:00;6.93;;;3.40;;
66256;SDS011;53049;43.446;3.698;2023-05-20T07:47:26;5.80;;;3.25;;
66256;SDS011;53049;43.446;3.698;2023-05-20T07:49:51;6.72;;;3.92;;
66256;SDS011;53049;43.446;3.698;2023-05-20T07:52:17;5.68;;;3.05;;
66256;SDS011;53049;43.446;3.698;2023-05-20T07:54:43;5.75;;;3.00;;
66256;SDS011;53049;43.446;3.698;2023-05-20T07:57:09;7.43;;;3.20;;
66256;SDS011;53049;43.446;3.698;2023-05-20T07:59:34;10.60;;;3.35;;
66256;SDS011;53049;43.446;3.698;2023-05-20T08:02:00;5.35;;;3.22;;
66256;SDS011;53049;43.446;3.698;2023-05-20T08:04:26;5.97;;;3.20;;
66256;SDS011;53049;43.446;3.698;2023-05-20T08:06:51;5.22;;;3.05;;
66256;SDS011;53049;43.446;3.698;2023-05-20T08:09:17;4.47;;;2.88;;
66256;SDS011;53049;43.446;3.698;2023-05-20T08:11:43;6.03;;;2.95;;
66256;SDS011;53049;43.446;3.698;2023-05-20T08:14:09;4.47;;;2.60;;
66256;SDS011;53049;43.446;3.698;2023-05-20T08:16:35;7.35;;;3.25;;
66256;SDS011;53049;43.446;3.698;2023-05-20T08:19:01;5.25;;;3.25;;
66256;SDS011;53049;43.446;3.698;2023-05-20T08:21:27;4.53;;;2.72;;
66256;SDS011;53049;43.446;3.698;2023-05-20T08:23:53;6.57;;;3.05;;
66256;SDS011;53049;43.446;3.698;2023-05-20T08:26:19;4.97;;;3.08;;
66256;SDS011;53049;43.446;3.698;2023-05-20T08:28:46;4.40;;;2.88;;
66256;SDS011;53049;43.446;3.698;2023-05-20T08:31:12;3.85;;;2.38;;
66256;SDS011;53049;43.446;3.698;2023-05-20T08:33:38;3.75;;;2.38;;
66256;SDS011;53049;43.446;3.698;2023-05-20T08:36:04;3.50;;;2.47;;
66256;SDS011;53049;43.446;3.698;2023-05-20T08:38:32;5.82;;;2.53;;
66256;SDS011;53049;43.446;3.698;2023-05-20T08:40:58;4.22;;;2.50;;
66256;SDS011;53049;43.446;3.698;2023-05-20T08:43:24;4.93;;;2.55;;
66256;SDS011;53049;43.446;3.698;2023-05-20T08:45:50;3.28;;;2.42;;
66256;SDS011;53049;43.446;3.698;2023-05-20T08:48:18;4.32;;;2.60;;
66256;SDS011;53049;43.446;3.698;2023-05-20T08:50:50;4.47;;;2.55;;
66256;SDS011;53049;43.446;3.698;2023-05-20T08:53:17;6.95;;;2.90;;
66256;SDS011;53049;43.446;3.698;2023-05-20T08:55:47;4.00;;;2.63;;
66256;SDS011;53049;43.446;3.698;2023-05-20T08:58:21;4.25;;;2.50;;
66256;SDS011;53049;43.446;3.698;2023-05-20T09:00:48;4.30;;;2.38;;
66256;SDS011;53049;43.446;3.698;2023-05-20T09:03:15;3.92;;;2.30;;
66256;SDS011;53049;43.446;3.698;2023-05-20T09:05:41;4.63;;;2.50;;
66256;SDS011;53049;43.446;3.698;2023-05-20T09:08:10;5.15;;;2.28;;
66256;SDS011;53049;43.446;3.698;2023-05-20T09:10:37;3.65;;;2.33;;
66256;SDS011;53049;43.446;3.698;2023-05-20T09:13:04;5.68;;;2.50;;
66256;SDS011;53049;43.446;3.698;2023-05-20T09:15:30;4.60;;;2.90;;
66256;SDS011;53049;43.446;3.698;2023-05-20T09:18:00;6.43;;;2.28;;
66256;SDS011;53049;43.446;3.698;2023-05-20T09:20:34;3.25;;;2.53;;
66256;SDS011;53049;43.446;3.698;2023-05-20T09:23:02;4.47;;;2.30;;
66256;SDS011;53049;43.446;3.698;2023-05-20T09:25:28;4.65;;;2.33;;
66256;SDS011;53049;43.446;3.698;2023-05-20T09:27:54;3.45;;;2.38;;
66256;SDS011;53049;43.446;3.698;2023-05-20T09:30:20;5.65;;;2.45;;
66256;SDS011;53049;43.446;3.698;2023-05-20T09:32:53;5.60;;;2.17;;
66256;SDS011;53049;43.446;3.698;2023-05-20T09:35:23;2.97;;;2.13;;
66256;SDS011;53049;43.446;3.698;2023-05-20T09:37:51;4.78;;;2.22;;
66256;SDS011;53049;43.446;3.698;2023-05-20T09:40:24;3.55;;;2.42;;
66256;SDS011;53049;43.446;3.698;2023-05-20T09:43:01;3.88;;;2.55;;
66256;SDS011;53049;43.446;3.698;2023-05-20T09:45:28;4.85;;;2.40;;
66256;SDS011;53049;43.446;3.698;2023-05-20T09:47:54;3.28;;;2.20;;
66256;SDS011;53049;43.446;3.698;2023-05-20T09:50:21;3.72;;;2.30;;
66256;SDS011;53049;43.446;3.698;2023-05-20T09:52:49;4.47;;;2.53;;
66256;SDS011;53049;43.446;3.698;2023-05-20T09:55:16;2.40;;;2.00;;
66256;SDS011;53049;43.446;3.698;2023-05-20T09:57:43;4.07;;;2.47;;
66256;SDS011;53049;43.446;3.698;2023-05-20T10:00:10;5.80;;;2.75;;
66256;SDS011;53049;43.446;3.698;2023-05-20T10:02:45;4.47;;;2.47;;
66256;SDS011;53049;43.446;3.698;2023-05-20T10:05:16;4.63;;;2.78;;
66256;SDS011;53049;43.446;3.698;2023-05-20T10:13:48;5.90;;;2.97;;
66256;SDS011;53049;43.446;3.698;2023-05-20T10:16:33;4.47;;;2.50;;
66256;SDS011;53049;43.446;3.698;2023-05-20T10:19:29;4.18;;;2.47;;
66256;SDS011;53049;43.446;3.698;2023-05-20T10:21:57;6.07;;;2.55;;
66256;SDS011;53049;43.446;3.698;2023-05-20T10:27:03;4.18;;;2.50;;
66256;SDS011;53049;43.446;3.698;2023-05-20T10:29:44;4.88;;;2.70;;
66256;SDS011;53049;43.446;3.698;2023-05-20T10:32:27;4.45;;;2.47;;
66256;SDS011;53049;43.446;3.698;2023-05-20T10:35:00;3.30;;;2.45;;
66256;SDS011;53049;43.446;3.698;2023-05-20T10:37:41;4.95;;;2.60;;
66256;SDS011;53049;43.446;3.698;2023-05-20T10:40:10;5.70;;;2.67;;
66256;SDS011;53049;43.446;3.698;2023-05-20T10:42:37;4.53;;;2.60;;
66256;SDS011;53049;43.446;3.698;2023-05-20T10:45:04;5.53;;;2.70;;
66256;SDS011;53049;43.446;3.698;2023-05-20T10:47:31;4.57;;;2.90;;
66256;SDS011;53049;43.446;3.698;2023-05-20T10:49:57;4.55;;;2.80;;
66256;SDS011;53049;43.446;3.698;2023-05-20T10:52:23;5.00;;;2.55;;
66256;SDS011;53049;43.446;3.698;2023-05-20T10:57:20;5.70;;;2.60;;
66256;SDS011;53049;43.446;3.698;2023-05-20T10:59:46;5.30;;;2.80;;
66256;SDS011;53049;43.446;3.698;2023-05-20T11:02:16;7.10;;;2.80;;
66256;SDS011;53049;43.446;3.698;2023-05-20T11:04:42;3.80;;;2.92;;
66256;SDS011;53049;43.446;3.698;2023-05-20T11:07:09;7.00;;;3.10;;
66256;SDS011;53049;43.446;3.698;2023-05-20T11:09:34;4.22;;;2.67;;
66256;SDS011;53049;43.446;3.698;2023-05-20T11:12:00;3.90;;;2.60;;
66256;SDS011;53049;43.446;3.698;2023-05-20T11:14:27;6.30;;;2.65;;
66256;SDS011;53049;43.446;3.698;2023-05-20T11:17:02;5.47;;;2.78;;
66256;SDS011;53049;43.446;3.698;2023-05-20T11:19:28;6.38;;;3.15;;
66256;SDS011;53049;43.446;3.698;2023-05-20T11:21:54;5.40;;;3.03;;
66256;SDS011;53049;43.446;3.698;2023-05-20T11:24:23;6.68;;;2.97;;
66256;SDS011;53049;43.446;3.698;2023-05-20T11:26:51;4.85;;;3.15;;
66256;SDS011;53049;43.446;3.698;2023-05-20T11:29:17;4.72;;;2.90;;
66256;SDS011;53049;43.446;3.698;2023-05-20T11:31:44;5.88;;;2.95;;
66256;SDS011;53049;43.446;3.698;2023-05-20T11:34:11;5.13;;;3.03;;
66256;SDS011;53049;43.446;3.698;2023-05-20T11:36:40;5.60;;;2.90;;
66256;SDS011;53049;43.446;3.698;2023-05-20T11:39:08;4.28;;;2.90;;
66256;SDS011;53049;43.446;3.698;2023-05-20T11:41:35;4.35;;;2.47;;
66256;SDS011;53049;43.446;3.698;2023-05-20T11:44:01;5.65;;;3.28;;
66256;SDS011;53049;43.446;3.698;2023-05-20T11:46:27;5.65;;;3.50;;
66256;SDS011;53049;43.446;3.698;2023-05-20T11:48:53;4.57;;;3.15;;
66256;SDS011;53049;43.446;3.698;2023-05-20T11:51:23;4.90;;;3.00;;
66256;SDS011;53049;43.446;3.698;2023-05-20T11:53:53;4.70;;;2.90;;
66256;SDS011;53049;43.446;3.698;2023-05-20T11:56:24;5.35;;;2.88;;
66256;SDS011;53049;43.446;3.698;2023-05-20T11:58:50;5.22;;;3.13;;
66256;SDS011;53049;43.446;3.698;2023-05-20T12:01:15;7.60;;;3.90;;
66256;SDS011;53049;43.446;3.698;2023-05-20T12:03:41;5.95;;;3.00;;
66256;SDS011;53049;43.446;3.698;2023-05-20T12:06:06;5.03;;;3.03;;
66256;SDS011;53049;43.446;3.698;2023-05-20T12:08:35;4.53;;;2.90;;
66256;SDS011;53049;43.446;3.698;2023-05-20T12:11:01;5.68;;;2.75;;
66256;SDS011;53049;43.446;3.698;2023-05-20T12:13:27;8.30;;;3.33;;
66256;SDS011;53049;43.446;3.698;2023-05-20T12:15:52;5.55;;;2.92;;
66256;SDS011;53049;43.446;3.698;2023-05-20T12:18:18;5.00;;;3.30;;
66256;SDS011;53049;43.446;3.698;2023-05-20T12:20:44;5.65;;;3.20;;
66256;SDS011;53049;43.446;3.698;2023-05-20T12:23:10;4.85;;;3.10;;
66256;SDS011;53049;43.446;3.698;2023-05-20T12:25:36;6.40;;;3.08;;
66256;SDS011;53049;43.446;3.698;2023-05-20T12:28:02;7.95;;;3.30;;
66256;SDS011;53049;43.446;3.698;2023-05-20T12:30:27;4.90;;;3.13;;
66256;SDS011;53049;43.446;3.698;2023-05-20T12:32:53;5.07;;;3.30;;
66256;SDS011;53049;43.446;3.698;2023-05-20T12:35:34;6.20;;;3.40;;
66256;SDS011;53049;43.446;3.698;2023-05-20T12:38:01;5.32;;;3.58;;
66256;SDS011;53049;43.446;3.698;2023-05-20T12:40:27;6.03;;;3.55;;
66256;SDS011;53049;43.446;3.698;2023-05-20T12:42:52;4.80;;;3.40;;
66256;SDS011;53049;43.446;3.698;2023-05-20T12:45:18;5.70;;;3.47;;
66256;SDS011;53049;43.446;3.698;2023-05-20T12:47:44;5.63;;;3.67;;
66256;SDS011;53049;43.446;3.698;2023-05-20T12:50:09;5.35;;;3.30;;
66256;SDS011;53049;43.446;3.698;2023-05-20T12:52:35;5.38;;;3.00;;
66256;SDS011;53049;43.446;3.698;2023-05-20T12:55:01;5.32;;;3.30;;
66256;SDS011;53049;43.446;3.698;2023-05-20T12:57:27;6.97;;;3.65;;
66256;SDS011;53049;43.446;3.698;2023-05-20T12:59:53;5.95;;;3.50;;
66256;SDS011;53049;43.446;3.698;2023-05-20T13:02:19;5.45;;;3.20;;
66256;SDS011;53049;43.446;3.698;2023-05-20T13:04:44;5.00;;;3.40;;
66256;SDS011;53049;43.446;3.698;2023-05-20T13:07:10;4.78;;;3.28;;
66256;SDS011;53049;43.446;3.698;2023-05-20T13:09:36;5.35;;;3.28;;
66256;SDS011;53049;43.446;3.698;2023-05-20T13:12:02;5.88;;;3.60;;
66256;SDS011;53049;43.446;3.698;2023-05-20T13:14:28;6.90;;;3.53;;
66256;SDS011;53049;43.446;3.698;2023-05-20T13:16:54;7.63;;;3.13;;
66256;SDS011;53049;43.446;3.698;2023-05-20T13:19:20;6.32;;;3.88;;
66256;SDS011;53049;43.446;3.698;2023-05-20T13:21:47;7.70;;;4.03;;
66256;SDS011;53049;43.446;3.698;2023-05-20T13:24:13;7.18;;;3.50;;
66256;SDS011;53049;43.446;3.698;2023-05-20T13:26:39;6.05;;;3.65;;
66256;SDS011;53049;43.446;3.698;2023-05-20T13:29:05;8.13;;;4.30;;
66256;SDS011;53049;43.446;3.698;2023-05-20T13:31:31;6.88;;;3.78;;
66256;SDS011;53049;43.446;3.698;2023-05-20T13:33:56;6.05;;;3.75;;
66256;SDS011;53049;43.446;3.698;2023-05-20T13:36:24;7.95;;;3.92;;
66256;SDS011;53049;43.446;3.698;2023-05-20T13:38:50;7.15;;;4.22;;
66256;SDS011;53049;43.446;3.698;2023-05-20T13:41:16;6.43;;;3.45;;
66256;SDS011;53049;43.446;3.698;2023-05-20T13:43:42;9.00;;;4.43;;
66256;SDS011;53049;43.446;3.698;2023-05-20T13:46:07;6.55;;;4.15;;
66256;SDS011;53049;43.446;3.698;2023-05-20T13:48:33;8.57;;;4.18;;
66256;SDS011;53049;43.446;3.698;2023-05-20T13:50:59;6.93;;;4.22;;
66256;SDS011;53049;43.446;3.698;2023-05-20T13:53:26;7.25;;;4.28;;
66256;SDS011;53049;43.446;3.698;2023-05-20T13:55:52;8.05;;;4.45;;
66256;SDS011;53049;43.446;3.698;2023-05-20T13:58:17;7.30;;;4.32;;
66256;SDS011;53049;43.446;3.698;2023-05-20T14:00:43;5.68;;;3.60;;
66256;SDS011;53049;43.446;3.698;2023-05-20T14:03:09;10.13;;;4.13;;
66256;SDS011;53049;43.446;3.698;2023-05-20T14:05:35;6.50;;;4.00;;
66256;SDS011;53049;43.446;3.698;2023-05-20T14:08:01;6.82;;;4.20;;
66256;SDS011;53049;43.446;3.698;2023-05-20T14:10:27;7.82;;;4.30;;
66256;SDS011;53049;43.446;3.698;2023-05-20T14:12:53;9.20;;;4.13;;
66256;SDS011;53049;43.446;3.698;2023-05-20T14:15:19;7.78;;;4.07;;
66256;SDS011;53049;43.446;3.698;2023-05-20T14:17:46;6.90;;;4.18;;
66256;SDS011;53049;43.446;3.698;2023-05-20T14:20:12;6.53;;;4.07;;
66256;SDS011;53049;43.446;3.698;2023-05-20T14:22:37;9.57;;;4.07;;
66256;SDS011;53049;43.446;3.698;2023-05-20T14:25:03;6.43;;;4.10;;
66256;SDS011;53049;43.446;3.698;2023-05-20T14:27:29;7.68;;;4.18;;
66256;SDS011;53049;43.446;3.698;2023-05-20T14:29:55;7.53;;;4.10;;
66256;SDS011;53049;43.446;3.698;2023-05-20T14:32:21;6.95;;;3.90;;
66256;SDS011;53049;43.446;3.698;2023-05-20T14:34:46;7.93;;;4.35;;
66256;SDS011;53049;43.446;3.698;2023-05-20T14:37:12;6.35;;;4.50;;
66256;SDS011;53049;43.446;3.698;2023-05-20T14:39:39;8.98;;;4.15;;
66256;SDS011;53049;43.446;3.698;2023-05-20T14:42:05;6.43;;;4.45;;
66256;SDS011;53049;43.446;3.698;2023-05-20T14:44:30;9.80;;;4.63;;
66256;SDS011;53049;43.446;3.698;2023-05-20T14:46:56;7.78;;;4.50;;
66256;SDS011;53049;43.446;3.698;2023-05-20T14:49:22;7.53;;;4.90;;
66256;SDS011;53049;43.446;3.698;2023-05-20T14:51:47;7.68;;;4.22;;
66256;SDS011;53049;43.446;3.698;2023-05-20T14:54:13;7.53;;;4.30;;
66256;SDS011;53049;43.446;3.698;2023-05-20T14:56:40;7.63;;;5.05;;